ADDS METAR Data INFO
IDs: Format: Raw Decoded Include TAF

Data at: 1612 UTC 14 Aug 2018

KRKD 141603Z AUTO VRB03KT 1 3/4SM BR OVC002 19/19 A2993 RMK AO2 VIS 1/2V5
KRKD 141556Z AUTO 06005KT 6SM BR OVC002 19/19 A2993 RMK AO2 SLP138 T01940194
KRKD 141456Z AUTO VRB04KT 10SM OVC004 19/19 A2995 RMK AO2 RAE32 SLP142 P0010 60018 T01890189 58003
KRKD 141433Z AUTO 07004KT 5SM BR BKN002 OVC015 19/19 A2995 RMK AO2 RAE32 P0010
KRKD 141420Z AUTO 06006KT 2SM -RA BR BKN002 OVC015 19/19 A2995 RMK AO2 P0010
KRKD 141414Z AUTO 06008KT 1SM +RA BR OVC002 19/19 A2994 RMK AO2 VIS 1/4V5 P0009
KRKD 141356Z AUTO 07003KT 2SM -RA BR OVC002 19/19 A2995 RMK AO2 VIS 1V5 RAB11 SLP144 P0008 T01890189
KRKD 141351Z AUTO 08004KT 1 3/4SM +RA BR OVC002 19/19 A2996 RMK AO2 VIS 1V4 RAB11 P0008
KRKD 141333Z AUTO 00000KT 3SM -RA BR OVC002 19/19 A2996 RMK AO2 RAB11 P0001
KRKD 141320Z AUTO 06004KT 1 1/2SM -RA BR OVC002 19/19 A2996 RMK AO2 RAB11 P0000
KRKD 141256Z AUTO 05003KT 1SM BR OVC002 19/19 A2996 RMK AO2 SLP145 T01890189
KRKD 141233Z AUTO VRB03KT 1 3/4SM BR OVC002 19/19 A2996 RMK AO2
KRKD 141222Z AUTO VRB04KT 4SM BR OVC002 19/19 A2996 RMK AO2
KRKD 141156Z AUTO 05005KT 2SM BR OVC002 19/19 A2995 RMK AO2 RAB34E48 SLP145 P0000 60000 T01890189 10189 20183 51002
KRKD 141152Z AUTO 04004KT 2SM BR OVC002 19/19 A2995 RMK AO2 RAB34E48 P0000
KRKD 141143Z AUTO 05005KT 1SM -RA BR OVC002 19/19 A2996 RMK AO2 RAB34 P0000
KRKD 141122Z AUTO 06006KT 1/2SM FG OVC002 19/19 A2995 RMK AO2
KRKD 141109Z AUTO 06006KT 3/4SM BR OVC002 19/19 A2995 RMK AO2
KRKD 141056Z AUTO 05005KT 1/2SM FG OVC002 19/19 A2995 RMK AO2 SLP144 T01890189
KRKD 141018Z AUTO 04005KT 3/4SM BR OVC002 19/19 A2995 RMK AO2
KRKD 140956Z AUTO 05004KT 1/4SM FG OVC002 18/18 A2995 RMK AO2 SLP142 T01830183
KRKD 140951Z AUTO 04005KT 1/4SM FG OVC002 18/18 A2995 RMK AO2
KRKD 140856Z AUTO 05006KT 1/2SM FG OVC002 18/18 A2996 RMK AO2 SLP146 60000 T01830183 58009
KRKD 140756Z AUTO 04006KT 1/2SM FG OVC002 18/18 A2997 RMK AO2 SLP149 T01830183
KRKD 140656Z AUTO 04005KT 1/2SM FG OVC002 18/18 A2998 RMK AO2 RAE12 SLP154 P0000 T01830183
KRKD 140556Z AUTO 03005KT 1/2SM -RA FG OVC002 18/18 A2999 RMK AO2 RAB33 SLP155 P0000 60000 T01830183 10194 20178 58012
KRKD 140456Z AUTO 04003KT 1/2SM FG OVC002 18/18 A3001 RMK AO2 SLP162 T01830183 402220178
KRKD 140438Z AUTO 00000KT 1/2SM FG OVC002 18/18 A3001 RMK AO2
KRKD 140356Z AUTO 00000KT 3/4SM BR OVC002 18/18 A3002 RMK AO2 SLP166 T01830183
KRKD 140256Z AUTO 04003KT 3/4SM BR OVC002 18/18 A3002 RMK AO2 SLP166 T01830183 58005
KRKD 140212Z AUTO 04004KT 1/2SM FG OVC002 18/18 A3002 RMK AO2
KRKD 140203Z AUTO 05004KT 1SM BR OVC002 18/18 A3002 RMK AO2
KRKD 140156Z AUTO 06005KT 2SM BR OVC002 18/18 A3002 RMK AO2 VIS 1 1/4V5 SLP167 T01830183
KRKD 140119Z AUTO 05003KT 8SM OVC002 19/18 A3003 RMK AO2
KRKD 140056Z AUTO 05003KT 10SM OVC004 19/19 A3003 RMK AO2 SLP172 T01890189
KRKD 132356Z AUTO 07004KT 10SM OVC004 19/18 A3003 RMK AO2 SLP171 T01940183 10222 20194 58008
KRKD 132256Z AUTO 08004KT 10SM OVC006 20/19 A3004 RMK AO2 SLP175 T02000189
KRKD 132156Z AUTO 05004KT 10SM OVC008 21/19 A3005 RMK AO2 SLP178 T02060189
KRKD 132137Z AUTO 03003KT 10SM OVC008 21/19 A3005 RMK AO2
KRKD 131956Z AUTO 09006KT 10SM OVC012 22/19 A3007 RMK AO2 SLP183 T02170189
KRKD 131856Z AUTO VRB05KT 10SM OVC010 21/18 A3008 RMK AO2 SLP186 T02060183
KRKD 131756Z AUTO VRB04KT 10SM OVC008 21/18 A3010 RMK AO2 SLP194 T02060183 10217 20189 57010
KRKD 131656Z AUTO 05007KT 10SM OVC008 21/18 A3011 RMK AO2 SLP197 T02060183
KRKD 131632Z AUTO 07007KT 10SM OVC008 20/18 A3012 RMK AO2
KRKD 131556Z AUTO 04007KT 350V060 10SM OVC010 21/18 A3012 RMK AO2 SLP202 T02110183
KRKD 131541Z AUTO 05007KT 10SM OVC010 22/18 A3013 RMK AO2
KRKD 131456Z AUTO 05008KT 360V080 10SM OVC008 21/18 A3013 RMK AO2 SLP205 T02060183 58001
KRKD 131356Z AUTO 06005KT 10SM OVC006 19/18 A3014 RMK AO2 SLP207 T01940178
KRKD 131256Z AUTO VRB06KT 10SM OVC006 19/17 A3014 RMK AO2 SLP207 T01940172
KRKD 131156Z AUTO VRB05KT 10SM OVC006 19/18 A3014 RMK AO2 SLP206 70001 T01890178 10194 20178 50004
KRKD 131056Z AUTO VRB04KT 10SM OVC006 19/18 A3014 RMK AO2 SLP207 T01890178
KRKD 130956Z AUTO 06004KT 10SM OVC006 18/18 A3014 RMK AO2 SLP206 T01830178
KRKD 130939Z AUTO 04004KT 10SM OVC006 18/18 A3013 RMK AO2
KRKD 130925Z AUTO 04004KT 8SM OVC004 18/18 A3013 RMK AO2 CIG 003V007
KRKD 130856Z AUTO 04007KT 3SM BR OVC002 18/18 A3012 RMK AO2 SLP202 T01780178 58003
KRKD 130830Z AUTO 04006KT 2SM BR OVC002 18/18 A3012 RMK AO2 CIG 001V005
KRKD 130823Z AUTO 05005KT 1 3/4SM BR OVC004 18/18 A3013 RMK AO2 CIG 002V005
KRKD 130756Z AUTO 04005KT 9SM OVC004 18/18 A3013 RMK AO2 SLP203 T01830178
KRKD 130751Z AUTO VRB05KT 9SM OVC004 18/18 A3013 RMK AO2
KRKD 130656Z AUTO 04004KT 10SM OVC006 18/17 A3013 RMK AO2 SLP205 T01830172
KRKD 130556Z AUTO 06006KT 10SM OVC006 19/17 A3015 RMK AO2 SLP211 T01890167 10194 20178 58003
KRKD 130456Z AUTO VRB03KT 10SM OVC006 19/17 A3017 RMK AO2 SLP216 T01890172 402330167